sensor_id;sensor_type;location;lat;lon;timestamp;P1;durP1;ratioP1;P2;durP2;ratioP2
9524;SDS011;15940;48.734;9.112;2023-11-21T00:01:13;7.03;;;1.70;;
9524;SDS011;15940;48.734;9.112;2023-11-21T00:03:40;3.03;;;1.87;;
9524;SDS011;15940;48.734;9.112;2023-11-21T00:06:06;4.47;;;2.17;;
9524;SDS011;15940;48.734;9.112;2023-11-21T00:08:34;4.60;;;1.87;;
9524;SDS011;15940;48.734;9.112;2023-11-21T00:11:01;3.77;;;1.70;;
9524;SDS011;15940;48.734;9.112;2023-11-21T00:13:30;4.37;;;2.20;;
9524;SDS011;15940;48.734;9.112;2023-11-21T00:15:57;4.83;;;2.13;;
9524;SDS011;15940;48.734;9.112;2023-11-21T00:18:25;9.57;;;2.13;;
9524;SDS011;15940;48.734;9.112;2023-11-21T00:20:52;5.23;;;2.20;;
9524;SDS011;15940;48.734;9.112;2023-11-21T00:23:18;6.97;;;2.20;;
9524;SDS011;15940;48.734;9.112;2023-11-21T00:25:45;5.50;;;2.33;;
9524;SDS011;15940;48.734;9.112;2023-11-21T00:28:12;6.27;;;2.37;;
9524;SDS011;15940;48.734;9.112;2023-11-21T00:30:39;6.00;;;2.20;;
9524;SDS011;15940;48.734;9.112;2023-11-21T00:33:05;3.50;;;2.13;;
9524;SDS011;15940;48.734;9.112;2023-11-21T00:35:33;5.80;;;2.60;;
9524;SDS011;15940;48.734;9.112;2023-11-21T00:38:00;4.60;;;2.40;;
9524;SDS011;15940;48.734;9.112;2023-11-21T00:40:28;6.43;;;2.33;;
9524;SDS011;15940;48.734;9.112;2023-11-21T00:42:55;5.03;;;2.17;;
9524;SDS011;15940;48.734;9.112;2023-11-21T00:45:22;6.60;;;2.40;;
9524;SDS011;15940;48.734;9.112;2023-11-21T00:47:49;7.63;;;2.40;;
9524;SDS011;15940;48.734;9.112;2023-11-21T00:50:16;4.83;;;2.37;;
9524;SDS011;15940;48.734;9.112;2023-11-21T00:52:44;2.00;;;1.73;;
9524;SDS011;15940;48.734;9.112;2023-11-21T00:55:10;1.87;;;1.53;;
9524;SDS011;15940;48.734;9.112;2023-11-21T00:57:37;6.57;;;2.23;;
9524;SDS011;15940;48.734;9.112;2023-11-21T01:00:05;7.97;;;2.30;;
9524;SDS011;15940;48.734;9.112;2023-11-21T01:02:34;3.37;;;1.87;;
9524;SDS011;15940;48.734;9.112;2023-11-21T01:05:01;4.73;;;2.10;;
9524;SDS011;15940;48.734;9.112;2023-11-21T01:07:28;4.53;;;2.00;;
9524;SDS011;15940;48.734;9.112;2023-11-21T01:09:56;4.13;;;2.00;;
9524;SDS011;15940;48.734;9.112;2023-11-21T01:12:24;4.10;;;1.77;;
9524;SDS011;15940;48.734;9.112;2023-11-21T01:14:51;3.87;;;1.73;;
9524;SDS011;15940;48.734;9.112;2023-11-21T01:17:17;4.47;;;1.90;;
9524;SDS011;15940;48.734;9.112;2023-11-21T01:19:44;9.50;;;1.87;;
9524;SDS011;15940;48.734;9.112;2023-11-21T01:22:11;3.53;;;1.80;;
9524;SDS011;15940;48.734;9.112;2023-11-21T01:24:38;8.10;;;2.27;;
9524;SDS011;15940;48.734;9.112;2023-11-21T01:27:06;4.70;;;1.90;;
9524;SDS011;15940;48.734;9.112;2023-11-21T01:29:34;2.30;;;1.47;;
9524;SDS011;15940;48.734;9.112;2023-11-21T01:32:02;5.83;;;1.67;;
9524;SDS011;15940;48.734;9.112;2023-11-21T01:34:29;2.60;;;1.93;;
9524;SDS011;15940;48.734;9.112;2023-11-21T01:36:56;6.63;;;1.80;;
9524;SDS011;15940;48.734;9.112;2023-11-21T01:39:23;5.23;;;2.00;;
9524;SDS011;15940;48.734;9.112;2023-11-21T01:41:50;2.33;;;1.80;;
9524;SDS011;15940;48.734;9.112;2023-11-21T01:44:19;4.03;;;1.80;;
9524;SDS011;15940;48.734;9.112;2023-11-21T01:46:46;3.73;;;1.40;;
9524;SDS011;15940;48.734;9.112;2023-11-21T01:49:13;3.47;;;1.70;;
9524;SDS011;15940;48.734;9.112;2023-11-21T01:51:40;3.60;;;1.57;;
9524;SDS011;15940;48.734;9.112;2023-11-21T01:54:08;6.67;;;1.70;;
9524;SDS011;15940;48.734;9.112;2023-11-21T01:56:36;6.00;;;1.70;;
9524;SDS011;15940;48.734;9.112;2023-11-21T01:59:04;3.63;;;1.70;;
9524;SDS011;15940;48.734;9.112;2023-11-21T02:01:33;2.93;;;1.60;;
9524;SDS011;15940;48.734;9.112;2023-11-21T02:04:00;3.77;;;1.20;;
9524;SDS011;15940;48.734;9.112;2023-11-21T02:06:27;2.67;;;1.50;;
9524;SDS011;15940;48.734;9.112;2023-11-21T02:08:56;2.50;;;1.30;;
9524;SDS011;15940;48.734;9.112;2023-11-21T02:11:22;3.30;;;1.20;;
9524;SDS011;15940;48.734;9.112;2023-11-21T02:13:49;4.47;;;1.67;;
9524;SDS011;15940;48.734;9.112;2023-11-21T02:16:19;3.27;;;1.40;;
9524;SDS011;15940;48.734;9.112;2023-11-21T02:18:47;4.63;;;1.67;;
9524;SDS011;15940;48.734;9.112;2023-11-21T02:21:14;1.40;;;1.00;;
9524;SDS011;15940;48.734;9.112;2023-11-21T02:23:42;2.17;;;1.30;;
9524;SDS011;15940;48.734;9.112;2023-11-21T02:26:11;2.70;;;1.20;;
9524;SDS011;15940;48.734;9.112;2023-11-21T02:28:39;3.37;;;1.10;;
9524;SDS011;15940;48.734;9.112;2023-11-21T02:31:06;2.03;;;0.90;;
9524;SDS011;15940;48.734;9.112;2023-11-21T02:33:32;3.43;;;1.50;;
9524;SDS011;15940;48.734;9.112;2023-11-21T02:35:59;1.23;;;1.13;;
9524;SDS011;15940;48.734;9.112;2023-11-21T02:38:26;3.43;;;1.13;;
9524;SDS011;15940;48.734;9.112;2023-11-21T02:40:55;4.30;;;1.13;;
9524;SDS011;15940;48.734;9.112;2023-11-21T02:43:23;0.83;;;0.83;;
9524;SDS011;15940;48.734;9.112;2023-11-21T02:45:50;2.33;;;0.97;;
9524;SDS011;15940;48.734;9.112;2023-11-21T02:48:16;2.53;;;1.40;;
9524;SDS011;15940;48.734;9.112;2023-11-21T02:50:43;1.37;;;0.97;;
9524;SDS011;15940;48.734;9.112;2023-11-21T02:53:10;2.63;;;1.00;;
9524;SDS011;15940;48.734;9.112;2023-11-21T02:55:37;3.43;;;1.30;;
9524;SDS011;15940;48.734;9.112;2023-11-21T02:58:05;2.90;;;0.80;;
9524;SDS011;15940;48.734;9.112;2023-11-21T03:00:32;2.33;;;0.83;;
9524;SDS011;15940;48.734;9.112;2023-11-21T03:02:59;1.77;;;0.87;;
9524;SDS011;15940;48.734;9.112;2023-11-21T03:05:26;1.63;;;1.00;;
9524;SDS011;15940;48.734;9.112;2023-11-21T03:07:54;1.50;;;0.90;;
9524;SDS011;15940;48.734;9.112;2023-11-21T03:10:20;3.77;;;1.00;;
9524;SDS011;15940;48.734;9.112;2023-11-21T03:12:48;4.90;;;1.00;;
9524;SDS011;15940;48.734;9.112;2023-11-21T03:15:16;1.20;;;0.93;;
9524;SDS011;15940;48.734;9.112;2023-11-21T03:17:43;0.73;;;0.73;;
9524;SDS011;15940;48.734;9.112;2023-11-21T03:20:10;0.97;;;0.87;;
9524;SDS011;15940;48.734;9.112;2023-11-21T03:22:39;2.00;;;0.87;;
9524;SDS011;15940;48.734;9.112;2023-11-21T03:25:06;0.70;;;0.70;;
9524;SDS011;15940;48.734;9.112;2023-11-21T03:27:36;1.57;;;0.80;;
9524;SDS011;15940;48.734;9.112;2023-11-21T03:30:04;0.80;;;0.80;;
9524;SDS011;15940;48.734;9.112;2023-11-21T03:32:33;0.70;;;0.70;;
9524;SDS011;15940;48.734;9.112;2023-11-21T03:35:00;1.40;;;0.80;;
9524;SDS011;15940;48.734;9.112;2023-11-21T03:37:27;1.17;;;0.73;;
9524;SDS011;15940;48.734;9.112;2023-11-21T03:39:54;1.63;;;0.80;;
9524;SDS011;15940;48.734;9.112;2023-11-21T03:42:21;2.17;;;0.73;;
9524;SDS011;15940;48.734;9.112;2023-11-21T03:44:48;4.47;;;0.90;;
9524;SDS011;15940;48.734;9.112;2023-11-21T03:47:15;2.33;;;1.10;;
9524;SDS011;15940;48.734;9.112;2023-11-21T03:49:43;1.67;;;0.90;;
9524;SDS011;15940;48.734;9.112;2023-11-21T03:52:10;4.03;;;1.00;;
9524;SDS011;15940;48.734;9.112;2023-11-21T03:54:37;1.20;;;0.83;;
9524;SDS011;15940;48.734;9.112;2023-11-21T03:57:04;1.50;;;1.03;;
9524;SDS011;15940;48.734;9.112;2023-11-21T03:59:31;1.27;;;1.00;;
9524;SDS011;15940;48.734;9.112;2023-11-21T04:01:57;1.70;;;0.90;;
9524;SDS011;15940;48.734;9.112;2023-11-21T04:04:24;0.77;;;0.67;;
9524;SDS011;15940;48.734;9.112;2023-11-21T04:06:52;1.57;;;0.83;;
9524;SDS011;15940;48.734;9.112;2023-11-21T04:09:19;2.27;;;0.90;;
9524;SDS011;15940;48.734;9.112;2023-11-21T04:11:49;0.97;;;0.80;;
9524;SDS011;15940;48.734;9.112;2023-11-21T04:14:15;2.20;;;1.00;;
9524;SDS011;15940;48.734;9.112;2023-11-21T04:16:42;0.93;;;0.73;;
9524;SDS011;15940;48.734;9.112;2023-11-21T04:19:09;1.10;;;0.80;;
9524;SDS011;15940;48.734;9.112;2023-11-21T04:21:36;2.03;;;0.90;;
9524;SDS011;15940;48.734;9.112;2023-11-21T04:24:05;2.03;;;0.73;;
9524;SDS011;15940;48.734;9.112;2023-11-21T04:26:32;1.47;;;0.83;;
9524;SDS011;15940;48.734;9.112;2023-11-21T04:28:59;1.17;;;0.70;;
9524;SDS011;15940;48.734;9.112;2023-11-21T04:31:26;1.30;;;0.77;;
9524;SDS011;15940;48.734;9.112;2023-11-21T04:33:52;3.77;;;0.60;;
9524;SDS011;15940;48.734;9.112;2023-11-21T04:36:19;1.00;;;0.80;;
9524;SDS011;15940;48.734;9.112;2023-11-21T04:38:46;1.23;;;0.50;;
9524;SDS011;15940;48.734;9.112;2023-11-21T04:41:14;2.67;;;0.77;;
9524;SDS011;15940;48.734;9.112;2023-11-21T04:43:41;1.13;;;0.60;;
9524;SDS011;15940;48.734;9.112;2023-11-21T04:46:08;0.77;;;0.67;;
9524;SDS011;15940;48.734;9.112;2023-11-21T04:48:35;1.47;;;0.60;;
9524;SDS011;15940;48.734;9.112;2023-11-21T04:51:01;1.57;;;0.80;;
9524;SDS011;15940;48.734;9.112;2023-11-21T04:53:29;0.50;;;0.50;;
9524;SDS011;15940;48.734;9.112;2023-11-21T04:55:56;0.70;;;0.70;;
9524;SDS011;15940;48.734;9.112;2023-11-21T04:58:24;1.50;;;0.67;;
9524;SDS011;15940;48.734;9.112;2023-11-21T05:00:51;0.70;;;0.70;;
9524;SDS011;15940;48.734;9.112;2023-11-21T05:03:17;2.40;;;0.90;;
9524;SDS011;15940;48.734;9.112;2023-11-21T05:05:44;1.10;;;0.80;;
9524;SDS011;15940;48.734;9.112;2023-11-21T05:08:11;0.90;;;0.90;;
9524;SDS011;15940;48.734;9.112;2023-11-21T05:10:38;0.70;;;0.70;;
9524;SDS011;15940;48.734;9.112;2023-11-21T05:13:05;1.27;;;0.80;;
9524;SDS011;15940;48.734;9.112;2023-11-21T05:15:36;2.53;;;0.90;;
9524;SDS011;15940;48.734;9.112;2023-11-21T05:18:03;1.03;;;0.73;;
9524;SDS011;15940;48.734;9.112;2023-11-21T05:20:30;1.27;;;0.80;;
9524;SDS011;15940;48.734;9.112;2023-11-21T05:22:58;1.97;;;0.70;;
9524;SDS011;15940;48.734;9.112;2023-11-21T05:25:25;3.07;;;0.97;;
9524;SDS011;15940;48.734;9.112;2023-11-21T05:27:51;1.33;;;0.70;;
9524;SDS011;15940;48.734;9.112;2023-11-21T05:30:19;0.60;;;0.60;;
9524;SDS011;15940;48.734;9.112;2023-11-21T05:32:48;1.30;;;1.00;;
9524;SDS011;15940;48.734;9.112;2023-11-21T05:35:15;0.77;;;0.77;;
9524;SDS011;15940;48.734;9.112;2023-11-21T05:37:42;0.60;;;0.60;;
9524;SDS011;15940;48.734;9.112;2023-11-21T05:40:10;1.30;;;1.10;;
9524;SDS011;15940;48.734;9.112;2023-11-21T05:42:38;1.37;;;0.77;;
9524;SDS011;15940;48.734;9.112;2023-11-21T05:45:05;1.73;;;0.80;;
9524;SDS011;15940;48.734;9.112;2023-11-21T05:47:36;0.80;;;0.80;;
9524;SDS011;15940;48.734;9.112;2023-11-21T05:50:06;1.97;;;0.90;;
9524;SDS011;15940;48.734;9.112;2023-11-21T05:52:35;4.60;;;1.17;;
9524;SDS011;15940;48.734;9.112;2023-11-21T05:55:02;1.70;;;1.07;;
9524;SDS011;15940;48.734;9.112;2023-11-21T05:57:32;1.13;;;1.10;;
9524;SDS011;15940;48.734;9.112;2023-11-21T05:59:59;1.17;;;1.10;;
9524;SDS011;15940;48.734;9.112;2023-11-21T06:02:28;1.63;;;1.10;;
9524;SDS011;15940;48.734;9.112;2023-11-21T06:04:55;1.43;;;0.93;;
9524;SDS011;15940;48.734;9.112;2023-11-21T06:07:23;1.20;;;1.10;;
9524;SDS011;15940;48.734;9.112;2023-11-21T06:09:50;1.73;;;0.90;;
9524;SDS011;15940;48.734;9.112;2023-11-21T06:12:16;1.00;;;1.00;;
9524;SDS011;15940;48.734;9.112;2023-11-21T06:14:45;2.27;;;1.27;;
9524;SDS011;15940;48.734;9.112;2023-11-21T06:17:13;1.37;;;1.27;;
9524;SDS011;15940;48.734;9.112;2023-11-21T06:19:40;1.33;;;1.23;;
9524;SDS011;15940;48.734;9.112;2023-11-21T06:22:06;3.70;;;1.80;;
9524;SDS011;15940;48.734;9.112;2023-11-21T06:24:35;3.13;;;1.60;;
9524;SDS011;15940;48.734;9.112;2023-11-21T06:27:03;2.33;;;1.47;;
9524;SDS011;15940;48.734;9.112;2023-11-21T06:29:30;4.80;;;1.50;;
9524;SDS011;15940;48.734;9.112;2023-11-21T06:31:57;3.37;;;1.50;;
9524;SDS011;15940;48.734;9.112;2023-11-21T06:34:24;1.57;;;1.30;;
9524;SDS011;15940;48.734;9.112;2023-11-21T06:36:52;1.63;;;1.20;;
9524;SDS011;15940;48.734;9.112;2023-11-21T06:39:19;1.53;;;1.43;;
9524;SDS011;15940;48.734;9.112;2023-11-21T06:41:49;1.40;;;1.30;;
9524;SDS011;15940;48.734;9.112;2023-11-21T06:44:15;1.63;;;1.40;;
9524;SDS011;15940;48.734;9.112;2023-11-21T06:46:42;3.30;;;1.40;;
9524;SDS011;15940;48.734;9.112;2023-11-21T06:49:09;1.33;;;1.20;;
9524;SDS011;15940;48.734;9.112;2023-11-21T06:51:37;1.30;;;1.20;;
9524;SDS011;15940;48.734;9.112;2023-11-21T06:54:03;2.47;;;1.30;;
9524;SDS011;15940;48.734;9.112;2023-11-21T06:56:31;1.87;;;1.10;;
9524;SDS011;15940;48.734;9.112;2023-11-21T06:58:59;1.30;;;1.20;;
9524;SDS011;15940;48.734;9.112;2023-11-21T07:01:26;1.30;;;1.20;;
9524;SDS011;15940;48.734;9.112;2023-11-21T07:03:52;1.93;;;1.20;;
9524;SDS011;15940;48.734;9.112;2023-11-21T07:06:19;1.23;;;1.13;;
9524;SDS011;15940;48.734;9.112;2023-11-21T07:08:46;1.70;;;1.10;;
9524;SDS011;15940;48.734;9.112;2023-11-21T07:11:13;1.30;;;1.13;;
9524;SDS011;15940;48.734;9.112;2023-11-21T07:13:40;1.20;;;1.00;;
9524;SDS011;15940;48.734;9.112;2023-11-21T07:16:08;0.90;;;0.90;;
9524;SDS011;15940;48.734;9.112;2023-11-21T07:18:35;1.30;;;1.20;;
9524;SDS011;15940;48.734;9.112;2023-11-21T07:21:02;1.60;;;1.20;;
9524;SDS011;15940;48.734;9.112;2023-11-21T07:23:31;1.20;;;1.10;;
9524;SDS011;15940;48.734;9.112;2023-11-21T07:25:57;1.97;;;1.07;;
9524;SDS011;15940;48.734;9.112;2023-11-21T07:28:24;2.00;;;1.37;;
9524;SDS011;15940;48.734;9.112;2023-11-21T07:30:51;1.80;;;1.10;;
9524;SDS011;15940;48.734;9.112;2023-11-21T07:33:19;1.10;;;1.10;;
9524;SDS011;15940;48.734;9.112;2023-11-21T07:35:46;1.30;;;1.20;;
9524;SDS011;15940;48.734;9.112;2023-11-21T07:38:13;1.20;;;1.10;;
9524;SDS011;15940;48.734;9.112;2023-11-21T07:40:40;2.10;;;1.20;;
9524;SDS011;15940;48.734;9.112;2023-11-21T07:43:07;1.40;;;1.30;;
9524;SDS011;15940;48.734;9.112;2023-11-21T07:45:34;1.93;;;1.10;;
9524;SDS011;15940;48.734;9.112;2023-11-21T07:48:00;2.93;;;1.20;;
9524;SDS011;15940;48.734;9.112;2023-11-21T07:50:29;1.70;;;1.60;;
9524;SDS011;15940;48.734;9.112;2023-11-21T07:52:57;2.33;;;1.63;;
9524;SDS011;15940;48.734;9.112;2023-11-21T07:55:24;1.90;;;1.80;;
9524;SDS011;15940;48.734;9.112;2023-11-21T07:57:51;2.07;;;1.90;;
9524;SDS011;15940;48.734;9.112;2023-11-21T08:00:18;7.43;;;2.10;;
9524;SDS011;15940;48.734;9.112;2023-11-21T08:02:46;2.20;;;2.00;;
9524;SDS011;15940;48.734;9.112;2023-11-21T08:05:13;2.10;;;1.90;;
9524;SDS011;15940;48.734;9.112;2023-11-21T08:07:41;2.13;;;1.50;;
9524;SDS011;15940;48.734;9.112;2023-11-21T08:10:08;3.50;;;2.80;;
9524;SDS011;15940;48.734;9.112;2023-11-21T08:12:36;1.60;;;1.50;;
9524;SDS011;15940;48.734;9.112;2023-11-21T08:15:03;1.80;;;1.70;;
9524;SDS011;15940;48.734;9.112;2023-11-21T08:17:33;1.80;;;1.70;;
9524;SDS011;15940;48.734;9.112;2023-11-21T08:20:00;4.40;;;1.60;;
9524;SDS011;15940;48.734;9.112;2023-11-21T08:22:28;1.90;;;1.80;;
9524;SDS011;15940;48.734;9.112;2023-11-21T08:24:56;1.37;;;1.33;;
9524;SDS011;15940;48.734;9.112;2023-11-21T08:27:23;1.87;;;1.30;;
9524;SDS011;15940;48.734;9.112;2023-11-21T08:29:50;1.70;;;1.60;;
9524;SDS011;15940;48.734;9.112;2023-11-21T08:32:17;1.47;;;1.40;;
9524;SDS011;15940;48.734;9.112;2023-11-21T08:34:44;1.93;;;1.40;;
9524;SDS011;15940;48.734;9.112;2023-11-21T08:37:14;2.83;;;1.20;;
9524;SDS011;15940;48.734;9.112;2023-11-21T08:39:41;2.27;;;1.50;;
9524;SDS011;15940;48.734;9.112;2023-11-21T08:42:09;1.87;;;1.57;;
9524;SDS011;15940;48.734;9.112;2023-11-21T08:44:36;2.10;;;1.90;;
9524;SDS011;15940;48.734;9.112;2023-11-21T08:47:03;4.00;;;1.80;;
9524;SDS011;15940;48.734;9.112;2023-11-21T08:49:30;2.30;;;1.73;;
9524;SDS011;15940;48.734;9.112;2023-11-21T08:51:57;2.40;;;2.13;;
9524;SDS011;15940;48.734;9.112;2023-11-21T08:54:24;3.00;;;1.57;;
9524;SDS011;15940;48.734;9.112;2023-11-21T08:56:51;1.70;;;1.60;;
9524;SDS011;15940;48.734;9.112;2023-11-21T08:59:20;1.33;;;1.10;;
9524;SDS011;15940;48.734;9.112;2023-11-21T09:01:47;1.50;;;1.40;;
9524;SDS011;15940;48.734;9.112;2023-11-21T09:04:13;1.07;;;1.07;;
9524;SDS011;15940;48.734;9.112;2023-11-21T09:06:40;2.70;;;1.17;;
9524;SDS011;15940;48.734;9.112;2023-11-21T09:09:07;2.30;;;1.43;;
9524;SDS011;15940;48.734;9.112;2023-11-21T09:11:35;1.10;;;1.10;;
9524;SDS011;15940;48.734;9.112;2023-11-21T09:14:02;1.00;;;1.00;;
9524;SDS011;15940;48.734;9.112;2023-11-21T09:16:30;1.00;;;1.00;;
9524;SDS011;15940;48.734;9.112;2023-11-21T09:18:57;1.20;;;1.10;;
9524;SDS011;15940;48.734;9.112;2023-11-21T09:21:24;1.00;;;1.00;;
9524;SDS011;15940;48.734;9.112;2023-11-21T09:23:51;1.40;;;1.30;;
9524;SDS011;15940;48.734;9.112;2023-11-21T09:26:17;9.47;;;2.83;;
9524;SDS011;15940;48.734;9.112;2023-11-21T09:28:44;7.13;;;2.00;;
9524;SDS011;15940;48.734;9.112;2023-11-21T09:31:12;4.43;;;1.40;;
9524;SDS011;15940;48.734;9.112;2023-11-21T09:33:42;3.90;;;1.40;;
9524;SDS011;15940;48.734;9.112;2023-11-21T09:36:11;1.90;;;1.33;;
9524;SDS011;15940;48.734;9.112;2023-11-21T09:38:39;1.00;;;1.00;;
9524;SDS011;15940;48.734;9.112;2023-11-21T09:41:07;1.23;;;0.87;;
9524;SDS011;15940;48.734;9.112;2023-11-21T09:43:42;0.73;;;0.73;;
9524;SDS011;15940;48.734;9.112;2023-11-21T09:46:11;1.47;;;1.23;;
9524;SDS011;15940;48.734;9.112;2023-11-21T09:48:46;1.07;;;0.80;;
9524;SDS011;15940;48.734;9.112;2023-11-21T09:51:14;1.43;;;0.90;;
9524;SDS011;15940;48.734;9.112;2023-11-21T09:53:42;0.90;;;0.90;;
9524;SDS011;15940;48.734;9.112;2023-11-21T09:56:11;2.93;;;1.00;;
9524;SDS011;15940;48.734;9.112;2023-11-21T09:58:41;2.70;;;1.10;;
9524;SDS011;15940;48.734;9.112;2023-11-21T10:01:08;1.10;;;1.00;;
9524;SDS011;15940;48.734;9.112;2023-11-21T10:03:35;1.67;;;1.30;;
9524;SDS011;15940;48.734;9.112;2023-11-21T10:06:05;0.77;;;0.77;;
9524;SDS011;15940;48.734;9.112;2023-11-21T10:08:33;1.13;;;1.00;;
9524;SDS011;15940;48.734;9.112;2023-11-21T10:11:01;0.77;;;0.77;;
9524;SDS011;15940;48.734;9.112;2023-11-21T10:13:31;1.13;;;0.93;;
9524;SDS011;15940;48.734;9.112;2023-11-21T10:15:59;3.07;;;1.00;;
9524;SDS011;15940;48.734;9.112;2023-11-21T10:18:30;1.40;;;1.30;;
9524;SDS011;15940;48.734;9.112;2023-11-21T10:20:59;1.00;;;1.00;;
9524;SDS011;15940;48.734;9.112;2023-11-21T10:23:27;0.97;;;0.97;;
9524;SDS011;15940;48.734;9.112;2023-11-21T10:25:54;1.10;;;1.10;;
9524;SDS011;15940;48.734;9.112;2023-11-21T10:28:21;1.10;;;1.00;;
9524;SDS011;15940;48.734;9.112;2023-11-21T10:30:47;2.00;;;1.30;;
9524;SDS011;15940;48.734;9.112;2023-11-21T10:33:14;1.73;;;1.30;;
9524;SDS011;15940;48.734;9.112;2023-11-21T10:35:43;2.77;;;1.60;;
9524;SDS011;15940;48.734;9.112;2023-11-21T10:38:15;2.60;;;1.40;;
9524;SDS011;15940;48.734;9.112;2023-11-21T10:40:44;1.53;;;1.27;;
9524;SDS011;15940;48.734;9.112;2023-11-21T10:43:11;1.63;;;1.53;;
9524;SDS011;15940;48.734;9.112;2023-11-21T10:45:40;1.67;;;1.47;;
9524;SDS011;15940;48.734;9.112;2023-11-21T10:48:07;2.23;;;1.30;;
9524;SDS011;15940;48.734;9.112;2023-11-21T10:50:35;3.10;;;1.80;;
9524;SDS011;15940;48.734;9.112;2023-11-21T10:53:03;1.50;;;1.40;;
9524;SDS011;15940;48.734;9.112;2023-11-21T10:55:30;5.87;;;1.80;;
9524;SDS011;15940;48.734;9.112;2023-11-21T10:57:59;4.43;;;1.83;;
9524;SDS011;15940;48.734;9.112;2023-11-21T11:00:29;2.20;;;1.50;;
9524;SDS011;15940;48.734;9.112;2023-11-21T11:02:57;2.13;;;1.40;;
9524;SDS011;15940;48.734;9.112;2023-11-21T11:05:24;1.60;;;1.50;;
9524;SDS011;15940;48.734;9.112;2023-11-21T11:07:56;1.40;;;1.30;;
9524;SDS011;15940;48.734;9.112;2023-11-21T11:10:26;1.97;;;1.50;;
9524;SDS011;15940;48.734;9.112;2023-11-21T11:12:54;3.13;;;1.80;;
9524;SDS011;15940;48.734;9.112;2023-11-21T11:15:23;1.30;;;1.20;;
9524;SDS011;15940;48.734;9.112;2023-11-21T11:17:50;4.93;;;1.57;;
9524;SDS011;15940;48.734;9.112;2023-11-21T11:20:21;7.70;;;2.10;;
9524;SDS011;15940;48.734;9.112;2023-11-21T11:22:50;7.93;;;1.80;;
9524;SDS011;15940;48.734;9.112;2023-11-21T11:25:30;2.97;;;1.40;;
9524;SDS011;15940;48.734;9.112;2023-11-21T11:28:07;1.60;;;1.23;;
9524;SDS011;15940;48.734;9.112;2023-11-21T11:30:39;1.63;;;1.20;;
9524;SDS011;15940;48.734;9.112;2023-11-21T11:33:12;3.97;;;1.27;;
9524;SDS011;15940;48.734;9.112;2023-11-21T11:36:00;1.73;;;1.47;;
9524;SDS011;15940;48.734;9.112;2023-11-21T11:38:30;2.27;;;1.87;;
9524;SDS011;15940;48.734;9.112;2023-11-21T11:41:00;4.47;;;3.03;;
9524;SDS011;15940;48.734;9.112;2023-11-21T11:43:29;3.70;;;2.50;;
9524;SDS011;15940;48.734;9.112;2023-11-21T11:45:59;3.10;;;2.17;;
9524;SDS011;15940;48.734;9.112;2023-11-21T11:48:28;3.77;;;2.90;;
9524;SDS011;15940;48.734;9.112;2023-11-21T11:51:01;4.33;;;1.70;;
9524;SDS011;15940;48.734;9.112;2023-11-21T11:53:33;2.17;;;1.30;;
9524;SDS011;15940;48.734;9.112;2023-11-21T11:58:50;2.23;;;1.47;;
9524;SDS011;15940;48.734;9.112;2023-11-21T12:01:19;3.93;;;1.37;;
9524;SDS011;15940;48.734;9.112;2023-11-21T12:06:47;1.43;;;1.10;;
9524;SDS011;15940;48.734;9.112;2023-11-21T12:09:17;0.93;;;0.93;;
9524;SDS011;15940;48.734;9.112;2023-11-21T12:11:44;1.20;;;1.10;;
9524;SDS011;15940;48.734;9.112;2023-11-21T12:14:12;0.90;;;0.90;;
9524;SDS011;15940;48.734;9.112;2023-11-21T12:16:41;0.90;;;0.90;;
9524;SDS011;15940;48.734;9.112;2023-11-21T12:19:08;2.67;;;1.10;;
9524;SDS011;15940;48.734;9.112;2023-11-21T12:21:36;1.43;;;1.10;;
9524;SDS011;15940;48.734;9.112;2023-11-21T12:24:03;2.50;;;1.10;;
9524;SDS011;15940;48.734;9.112;2023-11-21T12:26:33;1.27;;;1.17;;
9524;SDS011;15940;48.734;9.112;2023-11-21T12:29:00;1.60;;;0.87;;
9524;SDS011;15940;48.734;9.112;2023-11-21T12:31:29;1.00;;;1.00;;
9524;SDS011;15940;48.734;9.112;2023-11-21T12:33:57;1.10;;;1.10;;
9524;SDS011;15940;48.734;9.112;2023-11-21T12:36:24;1.23;;;1.23;;
9524;SDS011;15940;48.734;9.112;2023-11-21T12:38:51;1.83;;;1.10;;
9524;SDS011;15940;48.734;9.112;2023-11-21T12:41:18;2.07;;;1.40;;
9524;SDS011;15940;48.734;9.112;2023-11-21T12:43:46;1.20;;;1.10;;
9524;SDS011;15940;48.734;9.112;2023-11-21T12:46:13;0.90;;;0.90;;
9524;SDS011;15940;48.734;9.112;2023-11-21T12:48:41;1.43;;;0.93;;
9524;SDS011;15940;48.734;9.112;2023-11-21T12:51:10;1.33;;;0.90;;
9524;SDS011;15940;48.734;9.112;2023-11-21T12:53:37;0.83;;;0.57;;
9524;SDS011;15940;48.734;9.112;2023-11-21T12:56:06;0.80;;;0.80;;
9524;SDS011;15940;48.734;9.112;2023-11-21T12:58:34;1.00;;;0.90;;
9524;SDS011;15940;48.734;9.112;2023-11-21T13:01:01;1.00;;;1.00;;
9524;SDS011;15940;48.734;9.112;2023-11-21T13:03:30;1.00;;;1.00;;
9524;SDS011;15940;48.734;9.112;2023-11-21T13:05:57;1.30;;;1.20;;
9524;SDS011;15940;48.734;9.112;2023-11-21T13:08:27;1.43;;;1.30;;
9524;SDS011;15940;48.734;9.112;2023-11-21T13:10:55;1.40;;;1.30;;
9524;SDS011;15940;48.734;9.112;2023-11-21T13:13:23;1.40;;;1.30;;
9524;SDS011;15940;48.734;9.112;2023-11-21T13:15:51;1.63;;;1.53;;
9524;SDS011;15940;48.734;9.112;2023-11-21T13:18:20;2.30;;;2.10;;
9524;SDS011;15940;48.734;9.112;2023-11-21T13:20:48;1.60;;;1.60;;
9524;SDS011;15940;48.734;9.112;2023-11-21T13:23:15;1.80;;;1.70;;
9524;SDS011;15940;48.734;9.112;2023-11-21T13:25:43;1.80;;;1.70;;
9524;SDS011;15940;48.734;9.112;2023-11-21T13:28:12;1.70;;;1.60;;
9524;SDS011;15940;48.734;9.112;2023-11-21T13:30:40;1.83;;;1.70;;
9524;SDS011;15940;48.734;9.112;2023-11-21T13:33:09;2.33;;;1.50;;
9524;SDS011;15940;48.734;9.112;2023-11-21T13:35:42;1.03;;;1.03;;
9524;SDS011;15940;48.734;9.112;2023-11-21T13:38:13;1.00;;;1.00;;
9524;SDS011;15940;48.734;9.112;2023-11-21T13:40:42;0.57;;;0.57;;
9524;SDS011;15940;48.734;9.112;2023-11-21T13:43:15;0.67;;;0.67;;
9524;SDS011;15940;48.734;9.112;2023-11-21T13:45:44;12.47;;;7.10;;
9524;SDS011;15940;48.734;9.112;2023-11-21T13:48:12;6.70;;;4.30;;
9524;SDS011;15940;48.734;9.112;2023-11-21T13:50:39;3.57;;;1.87;;
9524;SDS011;15940;48.734;9.112;2023-11-21T13:53:13;1.60;;;1.50;;
9524;SDS011;15940;48.734;9.112;2023-11-21T13:55:48;1.00;;;1.00;;
9524;SDS011;15940;48.734;9.112;2023-11-21T13:58:15;1.37;;;1.20;;
9524;SDS011;15940;48.734;9.112;2023-11-21T14:00:45;0.77;;;0.77;;
9524;SDS011;15940;48.734;9.112;2023-11-21T14:03:20;0.80;;;0.80;;
9524;SDS011;15940;48.734;9.112;2023-11-21T14:05:48;1.87;;;1.00;;
9524;SDS011;15940;48.734;9.112;2023-11-21T14:08:17;1.10;;;1.10;;
9524;SDS011;15940;48.734;9.112;2023-11-21T14:10:45;1.30;;;1.20;;
9524;SDS011;15940;48.734;9.112;2023-11-21T14:13:17;1.10;;;1.10;;
9524;SDS011;15940;48.734;9.112;2023-11-21T14:15:45;1.60;;;1.50;;
9524;SDS011;15940;48.734;9.112;2023-11-21T14:18:16;1.80;;;1.70;;
9524;SDS011;15940;48.734;9.112;2023-11-21T14:20:46;1.73;;;1.40;;
9524;SDS011;15940;48.734;9.112;2023-11-21T14:23:12;1.60;;;1.50;;
9524;SDS011;15940;48.734;9.112;2023-11-21T14:25:40;1.60;;;1.50;;
9524;SDS011;15940;48.734;9.112;2023-11-21T14:28:07;1.80;;;1.70;;
9524;SDS011;15940;48.734;9.112;2023-11-21T14:30:38;2.07;;;1.70;;
9524;SDS011;15940;48.734;9.112;2023-11-21T14:33:06;1.87;;;1.73;;
9524;SDS011;15940;48.734;9.112;2023-11-21T14:35:33;2.07;;;1.87;;
9524;SDS011;15940;48.734;9.112;2023-11-21T14:38:00;1.80;;;1.70;;
9524;SDS011;15940;48.734;9.112;2023-11-21T14:40:29;2.00;;;1.80;;
9524;SDS011;15940;48.734;9.112;2023-11-21T14:42:58;1.87;;;1.77;;
9524;SDS011;15940;48.734;9.112;2023-11-21T14:45:25;2.03;;;1.83;;
9524;SDS011;15940;48.734;9.112;2023-11-21T14:47:55;1.70;;;1.60;;
9524;SDS011;15940;48.734;9.112;2023-11-21T14:50:31;1.90;;;1.80;;
9524;SDS011;15940;48.734;9.112;2023-11-21T14:53:13;2.23;;;2.13;;
9524;SDS011;15940;48.734;9.112;2023-11-21T14:55:39;2.47;;;2.27;;
9524;SDS011;15940;48.734;9.112;2023-11-21T14:58:19;2.20;;;2.00;;
9524;SDS011;15940;48.734;9.112;2023-11-21T15:00:51;3.53;;;3.23;;
9524;SDS011;15940;48.734;9.112;2023-11-21T15:03:24;3.40;;;2.60;;
9524;SDS011;15940;48.734;9.112;2023-11-21T15:06:08;3.03;;;2.53;;
9524;SDS011;15940;48.734;9.112;2023-11-21T15:08:52;2.87;;;2.67;;
9524;SDS011;15940;48.734;9.112;2023-11-21T15:11:42;2.80;;;2.50;;